createdAt,value
2023-09-30T00:01:12.586Z,17.61
2023-09-30T00:03:39.294Z,17.64
2023-09-30T00:06:06.027Z,17.56
2023-09-30T00:08:32.475Z,17.52
2023-09-30T00:10:58.923Z,17.53
2023-09-30T00:13:25.345Z,17.43
2023-09-30T00:15:51.781Z,17.29
2023-09-30T00:18:18.482Z,17.44
2023-09-30T00:20:45.029Z,17.53
2023-09-30T00:23:11.504Z,17.50
2023-09-30T00:25:37.943Z,17.49
2023-09-30T00:28:04.691Z,17.44
2023-09-30T00:30:31.342Z,17.25
2023-09-30T00:32:57.920Z,17.10
2023-09-30T00:35:24.877Z,17.08
2023-09-30T00:37:51.399Z,17.09
2023-09-30T00:40:17.994Z,17.11
2023-09-30T00:42:44.459Z,17.09
2023-09-30T00:45:11.334Z,16.97
2023-09-30T00:47:38.718Z,16.88
2023-09-30T00:50:08.658Z,16.90
2023-09-30T00:52:36.742Z,16.91
2023-09-30T00:55:07.009Z,17.03
2023-09-30T00:57:35.152Z,17.06
2023-09-30T01:00:02.346Z,17.14
2023-09-30T01:02:28.974Z,17.20
2023-09-30T01:04:56.724Z,17.16
2023-09-30T01:07:23.237Z,17.15
2023-09-30T01:09:51.582Z,17.14
2023-09-30T01:12:18.129Z,17.13
2023-09-30T01:14:44.776Z,17.10
2023-09-30T01:17:14.518Z,17.21
2023-09-30T01:19:43.619Z,17.27
2023-09-30T01:22:11.047Z,17.27
2023-09-30T01:24:41.856Z,17.29
2023-09-30T01:27:09.408Z,17.30
2023-09-30T01:29:39.418Z,17.29
2023-09-30T01:32:10.217Z,17.30
2023-09-30T01:34:37.274Z,17.22
2023-09-30T01:37:04.003Z,17.18
2023-09-30T01:39:31.255Z,17.26
2023-09-30T01:41:58.078Z,17.22
2023-09-30T01:44:24.593Z,17.22
2023-09-30T01:46:51.129Z,17.24
2023-09-30T01:49:19.197Z,17.23
2023-09-30T01:51:46.934Z,17.11
2023-09-30T01:54:13.593Z,17.03
2023-09-30T01:56:40.401Z,17.03
2023-09-30T01:59:06.908Z,17.07
2023-09-30T02:01:33.485Z,17.09
2023-09-30T02:04:00.126Z,17.08
2023-09-30T02:06:26.981Z,17.07
2023-09-30T02:08:53.440Z,17.04
2023-09-30T02:11:19.907Z,17.01
2023-09-30T02:13:46.440Z,16.95
2023-09-30T02:16:14.607Z,16.85
2023-09-30T02:18:46.113Z,16.81
2023-09-30T02:21:12.892Z,16.75
2023-09-30T02:23:39.395Z,16.82
2023-09-30T02:26:05.906Z,16.84
2023-09-30T02:28:33.448Z,16.92
2023-09-30T02:31:01.718Z,16.89
2023-09-30T02:33:28.542Z,16.93
2023-09-30T02:35:55.359Z,16.96
2023-09-30T02:38:22.084Z,16.97
2023-09-30T02:40:49.739Z,16.85
2023-09-30T02:43:17.691Z,16.85
2023-09-30T02:45:45.005Z,16.95
2023-09-30T02:48:11.709Z,16.98
2023-09-30T02:50:38.519Z,16.99
2023-09-30T02:53:05.320Z,16.85
2023-09-30T02:55:34.247Z,16.87
2023-09-30T02:58:02.008Z,16.88
2023-09-30T03:00:33.142Z,16.86
2023-09-30T03:03:02.671Z,16.80
2023-09-30T03:05:31.451Z,16.79
2023-09-30T03:07:57.876Z,16.81
2023-09-30T03:10:27.921Z,16.73
2023-09-30T03:12:55.037Z,16.63
2023-09-30T03:15:21.793Z,16.55
2023-09-30T03:17:52.818Z,16.38
2023-09-30T03:20:21.681Z,16.23
2023-09-30T03:22:48.846Z,16.05
2023-09-30T03:25:18.906Z,16.07
2023-09-30T03:27:49.422Z,16.08
2023-09-30T03:30:17.038Z,16.03
2023-09-30T03:32:44.206Z,16.01
2023-09-30T03:35:16.018Z,16.02
2023-09-30T03:37:42.514Z,16.15
2023-09-30T03:40:28.546Z,16.30
2023-09-30T03:42:55.762Z,16.36
2023-09-30T03:45:22.352Z,16.30
2023-09-30T03:47:50.232Z,16.30
2023-09-30T03:50:17.444Z,16.35
2023-09-30T03:52:45.707Z,16.38
2023-09-30T03:55:16.846Z,16.30
2023-09-30T03:57:45.133Z,16.19
2023-09-30T04:00:17.137Z,16.24
2023-09-30T04:02:44.237Z,16.34
2023-09-30T04:05:13.807Z,16.25
2023-09-30T04:07:40.241Z,16.31
2023-09-30T04:10:06.901Z,16.37
2023-09-30T04:12:33.848Z,16.33
2023-09-30T04:15:01.395Z,16.35
2023-09-30T04:17:28.513Z,16.42
2023-09-30T04:19:55.063Z,16.41
2023-09-30T04:22:22.534Z,16.45
2023-09-30T04:24:53.883Z,16.48
2023-09-30T04:27:20.896Z,16.43
2023-09-30T04:29:47.508Z,16.34
2023-09-30T04:32:14.867Z,16.30
2023-09-30T04:34:42.875Z,16.20
2023-09-30T04:37:10.562Z,16.06
2023-09-30T04:39:37.067Z,15.95
2023-09-30T04:42:05.177Z,15.86
2023-09-30T04:44:32.717Z,15.81
2023-09-30T04:46:59.278Z,15.85
2023-09-30T04:49:25.733Z,15.84
2023-09-30T04:51:52.175Z,15.83
2023-09-30T04:54:18.657Z,15.84
2023-09-30T04:56:45.126Z,15.84
2023-09-30T04:59:11.561Z,15.85
2023-09-30T05:01:38.039Z,15.82
2023-09-30T05:04:04.998Z,15.78
2023-09-30T05:06:33.707Z,15.81
2023-09-30T05:09:01.058Z,15.77
2023-09-30T05:11:27.529Z,15.78
2023-09-30T05:13:53.979Z,15.87
2023-09-30T05:16:20.616Z,15.88
2023-09-30T05:18:49.287Z,15.89
2023-09-30T05:21:16.776Z,15.93
2023-09-30T05:23:43.436Z,15.95
2023-09-30T05:26:09.900Z,16.03
2023-09-30T05:28:36.338Z,16.07
2023-09-30T05:31:03.700Z,16.06
2023-09-30T05:33:30.362Z,16.12
2023-09-30T05:35:56.960Z,16.12
2023-09-30T05:38:24.299Z,16.13
2023-09-30T05:40:50.805Z,16.15
2023-09-30T05:43:17.808Z,16.09
2023-09-30T05:45:51.202Z,16.03
2023-09-30T05:48:18.085Z,15.91
2023-09-30T05:50:45.008Z,15.91
2023-09-30T05:53:15.028Z,15.93
2023-09-30T05:55:44.089Z,16.04
2023-09-30T05:58:11.074Z,16.01
2023-09-30T06:00:37.574Z,16.00
2023-09-30T06:03:07.390Z,16.07
2023-09-30T06:05:35.039Z,16.12
2023-09-30T06:08:04.550Z,16.10
2023-09-30T06:10:31.492Z,16.11
2023-09-30T06:12:58.550Z,16.08
2023-09-30T06:15:29.864Z,16.09
2023-09-30T06:17:57.885Z,16.13
2023-09-30T06:20:27.644Z,16.11
2023-09-30T06:22:55.042Z,16.13
2023-09-30T06:25:22.881Z,16.21
2023-09-30T06:27:49.870Z,16.38
2023-09-30T06:30:17.426Z,16.46
2023-09-30T06:32:44.970Z,16.51
2023-09-30T06:35:12.144Z,16.59
2023-09-30T06:37:40.178Z,16.72
2023-09-30T06:40:12.666Z,16.73
2023-09-30T06:42:40.807Z,16.78
2023-09-30T06:45:08.737Z,16.79
2023-09-30T06:47:35.698Z,16.78
2023-09-30T06:50:09.098Z,16.70
2023-09-30T06:52:36.638Z,16.80
2023-09-30T06:55:05.646Z,16.98
2023-09-30T06:57:36.967Z,17.12
2023-09-30T07:00:10.079Z,17.16
2023-09-30T07:02:37.600Z,17.24
2023-09-30T07:05:15.643Z,17.29
2023-09-30T07:07:44.721Z,17.37
2023-09-30T07:10:12.409Z,17.46
2023-09-30T07:12:38.990Z,17.49
2023-09-30T07:15:06.928Z,17.53
2023-09-30T07:17:35.120Z,17.62
2023-09-30T07:20:03.184Z,17.71
2023-09-30T07:22:39.951Z,17.77
2023-09-30T07:25:15.699Z,17.83
2023-09-30T07:27:42.241Z,17.93
2023-09-30T07:30:09.221Z,18.01
2023-09-30T07:32:35.681Z,18.13
2023-09-30T07:35:02.620Z,18.17
2023-09-30T07:37:29.675Z,18.25
2023-09-30T07:39:56.219Z,18.36
2023-09-30T07:42:23.527Z,18.44
2023-09-30T07:44:50.200Z,18.49
2023-09-30T07:47:16.684Z,18.49
2023-09-30T07:49:43.151Z,18.55
2023-09-30T07:52:10.144Z,18.64
2023-09-30T07:54:36.712Z,18.74
2023-09-30T07:57:03.263Z,18.82
2023-09-30T07:59:29.733Z,18.90
2023-09-30T08:01:57.051Z,18.97
2023-09-30T08:04:23.669Z,19.02
2023-09-30T08:06:52.093Z,19.08
2023-09-30T08:09:19.720Z,19.10
2023-09-30T08:11:46.445Z,19.16
2023-09-30T08:14:12.935Z,19.20
2023-09-30T08:16:39.877Z,19.25
2023-09-30T08:19:06.507Z,19.39
2023-09-30T08:21:33.164Z,19.48
2023-09-30T08:24:00.323Z,19.55
2023-09-30T08:26:26.917Z,19.65
2023-09-30T08:28:53.358Z,19.81
2023-09-30T08:31:20.678Z,19.85
2023-09-30T08:33:47.292Z,19.91
2023-09-30T08:36:13.985Z,19.93
2023-09-30T08:38:41.910Z,20.08
2023-09-30T08:41:08.540Z,20.13
2023-09-30T08:43:41.654Z,20.23
2023-09-30T08:46:08.572Z,20.41
2023-09-30T08:48:36.649Z,20.51
2023-09-30T08:51:03.636Z,20.60
2023-09-30T08:53:31.208Z,20.58
2023-09-30T08:55:59.991Z,20.70
2023-09-30T08:58:33.489Z,20.81
2023-09-30T09:01:00.251Z,20.89
2023-09-30T09:03:30.506Z,20.80
2023-09-30T09:05:57.651Z,20.83
2023-09-30T09:08:26.926Z,20.87
2023-09-30T09:10:58.285Z,20.87
2023-09-30T09:13:28.346Z,21.03
2023-09-30T09:16:08.951Z,21.26
2023-09-30T09:18:37.181Z,21.44
2023-09-30T09:21:11.643Z,21.58
2023-09-30T09:23:46.217Z,21.65
2023-09-30T09:26:36.180Z,21.62
2023-09-30T09:29:07.401Z,21.74
2023-09-30T09:31:36.382Z,21.87
2023-09-30T09:34:05.369Z,21.98
2023-09-30T09:36:41.791Z,22.11
2023-09-30T09:39:08.783Z,22.24
2023-09-30T09:41:51.513Z,22.44
2023-09-30T09:44:20.409Z,22.50
2023-09-30T09:46:50.136Z,22.47
2023-09-30T09:49:21.550Z,22.49
2023-09-30T09:51:49.866Z,22.83
2023-09-30T09:54:17.979Z,22.93
2023-09-30T09:56:47.334Z,22.95
2023-09-30T09:59:15.000Z,23.02
2023-09-30T10:01:42.538Z,23.04
2023-09-30T10:04:12.040Z,23.19
2023-09-30T10:06:41.776Z,23.35
2023-09-30T10:09:14.211Z,23.48
2023-09-30T10:11:41.576Z,23.66
2023-09-30T10:14:14.192Z,23.77
2023-09-30T10:16:41.311Z,23.88
2023-09-30T10:19:08.484Z,23.70
2023-09-30T10:21:35.169Z,23.56
2023-09-30T10:24:26.829Z,23.44
2023-09-30T10:27:33.385Z,23.71
2023-09-30T10:30:03.152Z,23.94
2023-09-30T10:32:58.203Z,24.06
2023-09-30T10:35:27.389Z,24.31
2023-09-30T10:38:22.454Z,24.38
2023-09-30T10:40:52.680Z,24.38
2023-09-30T10:43:39.121Z,24.53
2023-09-30T10:46:28.276Z,24.63
2023-09-30T10:48:55.121Z,24.71
2023-09-30T10:51:22.653Z,24.75
2023-09-30T10:53:52.556Z,24.83
2023-09-30T10:56:23.044Z,24.92
2023-09-30T10:58:51.197Z,25.10
2023-09-30T11:01:20.127Z,25.03
2023-09-30T11:03:48.041Z,25.13
2023-09-30T11:06:18.699Z,25.28
2023-09-30T11:08:55.131Z,25.35
2023-09-30T11:11:36.516Z,25.27
2023-09-30T11:14:03.758Z,25.15
2023-09-30T11:16:30.302Z,25.14
2023-09-30T11:18:57.155Z,25.34
2023-09-30T11:21:24.289Z,25.46
2023-09-30T11:23:51.231Z,25.48
2023-09-30T11:26:30.335Z,25.48
2023-09-30T11:28:57.561Z,25.36
2023-09-30T11:31:24.199Z,25.39
2023-09-30T11:33:54.934Z,25.50
2023-09-30T11:36:22.865Z,25.69
2023-09-30T11:38:51.451Z,25.84
2023-09-30T11:41:23.123Z,25.93
2023-09-30T11:44:14.710Z,25.84
2023-09-30T11:47:02.015Z,25.63
2023-09-30T11:49:37.274Z,25.45
2023-09-30T11:52:05.866Z,25.64
2023-09-30T11:54:34.654Z,25.77
2023-09-30T11:57:02.897Z,25.51
2023-09-30T11:59:30.221Z,25.54
2023-09-30T12:02:12.868Z,25.59
2023-09-30T12:04:41.904Z,25.72
2023-09-30T12:07:09.341Z,25.72
2023-09-30T12:09:38.286Z,25.70
2023-09-30T12:12:05.480Z,25.73
2023-09-30T12:14:32.329Z,25.89
2023-09-30T12:16:58.890Z,25.93
2023-09-30T12:19:27.426Z,25.92
2023-09-30T12:21:54.297Z,25.73
2023-09-30T12:24:23.006Z,25.49
2023-09-30T12:26:50.848Z,25.63
2023-09-30T12:29:18.764Z,25.63
2023-09-30T12:31:53.197Z,25.65
2023-09-30T12:34:20.729Z,25.81
2023-09-30T12:36:48.703Z,25.75
2023-09-30T12:39:17.758Z,25.84
2023-09-30T12:41:46.675Z,25.62
2023-09-30T12:44:14.470Z,25.66
2023-09-30T12:46:42.160Z,25.79
2023-09-30T12:49:08.882Z,25.93
2023-09-30T12:51:36.310Z,25.83
2023-09-30T12:54:03.195Z,25.69
2023-09-30T12:56:33.973Z,25.64
2023-09-30T12:59:00.707Z,25.72
2023-09-30T13:01:29.765Z,25.74
2023-09-30T13:03:57.001Z,25.74
2023-09-30T13:06:23.762Z,25.60
2023-09-30T13:08:50.348Z,25.59
2023-09-30T13:11:16.908Z,25.60
2023-09-30T13:13:44.645Z,25.76
2023-09-30T13:16:12.919Z,26.11
2023-09-30T13:18:40.167Z,26.19
2023-09-30T13:21:07.191Z,26.09
2023-09-30T13:23:34.425Z,26.08
2023-09-30T13:26:01.502Z,26.26
2023-09-30T13:28:31.449Z,26.10
2023-09-30T13:30:58.258Z,26.00
2023-09-30T13:33:24.888Z,25.91
2023-09-30T13:35:51.517Z,25.90
2023-09-30T13:38:18.133Z,26.03
2023-09-30T13:40:45.355Z,26.03
2023-09-30T13:43:12.180Z,26.03
2023-09-30T13:45:39.234Z,26.11
2023-09-30T13:48:06.269Z,26.02
2023-09-30T13:50:32.991Z,25.94
2023-09-30T13:53:02.114Z,25.93
2023-09-30T13:55:28.672Z,25.95
2023-09-30T13:57:55.322Z,25.86
2023-09-30T14:00:22.398Z,25.80
2023-09-30T14:02:49.597Z,25.76
2023-09-30T14:05:16.400Z,25.86
2023-09-30T14:07:44.336Z,26.03
2023-09-30T14:10:14.350Z,26.11
2023-09-30T14:12:41.514Z,26.07
2023-09-30T14:15:09.151Z,26.07
2023-09-30T14:17:38.801Z,26.04
2023-09-30T14:20:07.223Z,25.94
2023-09-30T14:22:34.550Z,25.87
2023-09-30T14:25:01.465Z,25.88
2023-09-30T14:27:28.325Z,25.90
2023-09-30T14:29:55.085Z,25.88
2023-09-30T14:32:21.781Z,25.94
2023-09-30T14:34:48.585Z,25.86
2023-09-30T14:37:15.535Z,25.87
2023-09-30T14:39:42.311Z,25.89
2023-09-30T14:42:08.994Z,25.91
2023-09-30T14:44:35.454Z,25.87
2023-09-30T14:47:01.966Z,25.85
2023-09-30T14:49:28.676Z,25.83
2023-09-30T14:51:57.505Z,25.84
2023-09-30T14:54:24.781Z,25.92
2023-09-30T14:56:51.288Z,25.90
2023-09-30T14:59:17.810Z,25.90
2023-09-30T15:01:44.495Z,25.94
2023-09-30T15:04:11.299Z,25.92
2023-09-30T15:06:38.192Z,25.86
2023-09-30T15:09:05.537Z,25.82
2023-09-30T15:11:32.792Z,25.83
2023-09-30T15:13:59.523Z,25.83
2023-09-30T15:16:26.925Z,25.85
2023-09-30T15:18:53.930Z,25.90
2023-09-30T15:21:21.012Z,26.00
2023-09-30T15:23:47.770Z,25.95
2023-09-30T15:26:14.372Z,26.01
2023-09-30T15:28:40.820Z,26.02
2023-09-30T15:31:08.117Z,25.98
2023-09-30T15:33:35.171Z,25.88
2023-09-30T15:36:10.598Z,25.90
2023-09-30T15:38:37.181Z,25.86
2023-09-30T15:41:04.717Z,25.85
2023-09-30T15:43:33.833Z,25.81
2023-09-30T15:46:01.262Z,25.71
2023-09-30T15:48:28.085Z,25.66
2023-09-30T15:50:54.603Z,25.76
2023-09-30T15:53:21.107Z,25.77
2023-09-30T15:55:47.595Z,25.74
2023-09-30T15:58:14.049Z,25.71
2023-09-30T16:00:41.321Z,25.71
2023-09-30T16:03:09.523Z,25.70
2023-09-30T16:05:38.473Z,25.67
2023-09-30T16:08:06.479Z,25.63
2023-09-30T16:10:33.344Z,25.54
2023-09-30T16:13:00.624Z,25.49
2023-09-30T16:15:27.428Z,25.46
2023-09-30T16:17:54.058Z,25.37
2023-09-30T16:20:25.876Z,25.32
2023-09-30T16:22:52.658Z,25.27
2023-09-30T16:25:19.602Z,25.28
2023-09-30T16:27:46.124Z,25.23
2023-09-30T16:30:15.857Z,25.19
2023-09-30T16:32:43.876Z,25.14
2023-09-30T16:35:11.273Z,25.11
2023-09-30T16:37:39.002Z,25.05
2023-09-30T16:40:07.791Z,25.00
2023-09-30T16:42:34.912Z,24.91
2023-09-30T16:45:02.576Z,24.81
2023-09-30T16:47:29.857Z,24.72
2023-09-30T16:49:56.574Z,24.62
2023-09-30T16:52:24.503Z,24.53
2023-09-30T16:54:51.614Z,24.43
2023-09-30T16:57:18.631Z,24.35
2023-09-30T16:59:46.520Z,24.27
2023-09-30T17:02:13.317Z,24.21
2023-09-30T17:04:44.108Z,24.13
2023-09-30T17:07:10.758Z,24.05
2023-09-30T17:09:37.877Z,24.00
2023-09-30T17:12:04.786Z,23.95
2023-09-30T17:14:34.272Z,23.90
2023-09-30T17:17:01.084Z,23.84
2023-09-30T17:19:28.129Z,23.80
2023-09-30T17:21:55.985Z,23.73
2023-09-30T17:24:22.748Z,23.66
2023-09-30T17:26:49.245Z,23.64
2023-09-30T17:29:15.681Z,23.57
2023-09-30T17:31:42.314Z,23.52
2023-09-30T17:34:08.892Z,23.45
2023-09-30T17:36:35.526Z,23.39
2023-09-30T17:39:02.489Z,23.36
2023-09-30T17:41:29.112Z,23.29
2023-09-30T17:43:55.669Z,23.23
2023-09-30T17:46:22.289Z,23.18
2023-09-30T17:48:49.443Z,23.14
2023-09-30T17:51:22.850Z,23.08
2023-09-30T17:53:53.373Z,22.99
2023-09-30T17:56:22.366Z,22.93
2023-09-30T17:58:49.171Z,22.90
2023-09-30T18:01:20.123Z,22.83
2023-09-30T18:03:47.581Z,22.76
2023-09-30T18:06:15.014Z,22.76
2023-09-30T18:08:42.259Z,22.72
2023-09-30T18:11:09.533Z,22.64
2023-09-30T18:13:36.770Z,22.57
2023-09-30T18:16:03.861Z,22.49
2023-09-30T18:18:31.055Z,22.43
2023-09-30T18:20:58.055Z,22.38
2023-09-30T18:23:24.561Z,22.32
2023-09-30T18:25:51.210Z,22.30
2023-09-30T18:28:17.776Z,22.27
2023-09-30T18:30:45.677Z,22.25
2023-09-30T18:33:15.607Z,22.20
2023-09-30T18:35:43.610Z,22.16
2023-09-30T18:38:15.064Z,22.17
2023-09-30T18:40:44.103Z,22.12
2023-09-30T18:43:17.356Z,22.11
2023-09-30T18:45:45.814Z,22.11
2023-09-30T18:48:13.813Z,22.09
2023-09-30T18:50:49.770Z,22.05
2023-09-30T18:53:16.962Z,22.01
2023-09-30T18:55:45.885Z,21.93
2023-09-30T18:58:12.544Z,21.81
2023-09-30T19:00:41.403Z,21.71
2023-09-30T19:03:08.865Z,21.70
2023-09-30T19:05:36.402Z,21.70
2023-09-30T19:08:04.100Z,21.74
2023-09-30T19:10:30.783Z,21.70
2023-09-30T19:12:57.681Z,21.70
2023-09-30T19:15:27.266Z,21.66
2023-09-30T19:17:54.185Z,21.64
2023-09-30T19:20:20.830Z,21.57
2023-09-30T19:22:48.138Z,21.47
2023-09-30T19:25:14.803Z,21.41
2023-09-30T19:27:41.916Z,21.38
2023-09-30T19:30:09.831Z,21.40
2023-09-30T19:32:36.937Z,21.39
2023-09-30T19:35:04.986Z,21.38
2023-09-30T19:37:31.879Z,21.34
2023-09-30T19:39:58.799Z,21.27
2023-09-30T19:42:27.547Z,21.27
2023-09-30T19:44:54.542Z,21.29
2023-09-30T19:47:21.613Z,21.25
2023-09-30T19:49:48.888Z,21.19
2023-09-30T19:52:15.534Z,21.10
2023-09-30T19:54:42.375Z,21.05
2023-09-30T19:57:08.824Z,20.97
2023-09-30T19:59:38.685Z,20.88
2023-09-30T20:02:06.309Z,20.86
2023-09-30T20:04:32.858Z,20.76
2023-09-30T20:07:00.017Z,20.72
2023-09-30T20:09:27.279Z,20.61
2023-09-30T20:12:03.557Z,20.62
2023-09-30T20:14:33.464Z,20.66
2023-09-30T20:17:00.129Z,20.52
2023-09-30T20:19:27.736Z,20.39
2023-09-30T20:21:54.872Z,20.31
2023-09-30T20:24:22.437Z,20.30
2023-09-30T20:26:49.076Z,20.27
2023-09-30T20:29:15.635Z,20.18
2023-09-30T20:31:42.210Z,20.21
2023-09-30T20:34:09.379Z,20.27
2023-09-30T20:36:36.118Z,20.23
2023-09-30T20:39:03.587Z,20.30
2023-09-30T20:41:30.601Z,20.09
2023-09-30T20:43:57.482Z,19.85
2023-09-30T20:46:26.020Z,19.83
2023-09-30T20:48:53.515Z,19.84
2023-09-30T20:51:20.435Z,19.84
2023-09-30T20:53:49.948Z,19.72
2023-09-30T20:56:16.919Z,19.69
2023-09-30T20:58:43.460Z,19.82
2023-09-30T21:01:13.837Z,19.88
2023-09-30T21:03:41.378Z,20.04
2023-09-30T21:06:09.276Z,20.12
2023-09-30T21:08:37.781Z,20.12
2023-09-30T21:11:08.219Z,20.12
2023-09-30T21:13:35.373Z,20.09
2023-09-30T21:16:05.737Z,20.10
2023-09-30T21:18:33.732Z,20.08
2023-09-30T21:21:01.150Z,20.02
2023-09-30T21:23:27.977Z,19.99
2023-09-30T21:25:55.633Z,20.03
2023-09-30T21:28:23.315Z,20.05
2023-09-30T21:30:50.408Z,20.05
2023-09-30T21:33:16.878Z,20.10
2023-09-30T21:35:43.348Z,19.99
2023-09-30T21:38:10.305Z,19.70
2023-09-30T21:40:36.829Z,19.62
2023-09-30T21:43:04.646Z,19.66
2023-09-30T21:45:31.454Z,19.77
2023-09-30T21:47:58.040Z,19.83
2023-09-30T21:50:24.819Z,19.90
2023-09-30T21:52:51.646Z,19.87
2023-09-30T21:55:18.415Z,19.93
2023-09-30T21:57:44.984Z,19.83
2023-09-30T22:00:17.028Z,19.77
2023-09-30T22:02:44.362Z,19.74
2023-09-30T22:05:11.463Z,19.76
2023-09-30T22:07:40.461Z,19.72
2023-09-30T22:10:08.591Z,19.68
2023-09-30T22:12:35.912Z,19.58
2023-09-30T22:15:02.475Z,19.52
2023-09-30T22:17:28.983Z,19.41
2023-09-30T22:19:55.468Z,19.41
2023-09-30T22:22:21.978Z,19.41
2023-09-30T22:24:49.156Z,19.36
2023-09-30T22:27:15.722Z,19.33
2023-09-30T22:29:42.723Z,19.33
2023-09-30T22:32:09.203Z,19.38
2023-09-30T22:34:36.336Z,19.42
2023-09-30T22:37:02.854Z,19.55
2023-09-30T22:39:29.326Z,19.59
2023-09-30T22:41:55.831Z,19.49
2023-09-30T22:44:22.254Z,19.42
2023-09-30T22:46:49.492Z,19.39
2023-09-30T22:49:16.739Z,19.38
2023-09-30T22:51:43.327Z,19.38
2023-09-30T22:54:09.838Z,19.25
2023-09-30T22:56:36.518Z,19.29
2023-09-30T22:59:04.854Z,19.17
2023-09-30T23:01:31.403Z,19.02
2023-09-30T23:03:59.545Z,18.96
2023-09-30T23:06:26.365Z,19.07
2023-09-30T23:08:53.221Z,19.17
2023-09-30T23:11:19.697Z,19.07
2023-09-30T23:13:46.893Z,19.01
2023-09-30T23:16:13.804Z,18.92
2023-09-30T23:18:40.614Z,18.78
2023-09-30T23:21:10.619Z,18.73
2023-09-30T23:23:37.358Z,18.74
2023-09-30T23:26:07.773Z,18.71
2023-09-30T23:28:38.809Z,18.59
2023-09-30T23:31:06.016Z,18.70
2023-09-30T23:33:34.264Z,18.66
2023-09-30T23:36:06.754Z,18.66
2023-09-30T23:38:36.074Z,18.67
2023-09-30T23:41:04.873Z,18.68
2023-09-30T23:43:32.842Z,18.67
2023-09-30T23:45:59.573Z,18.58
2023-09-30T23:48:26.921Z,18.45
2023-09-30T23:50:54.819Z,18.37
2023-09-30T23:53:23.546Z,18.43
2023-09-30T23:55:50.603Z,18.35
2023-09-30T23:58:17.232Z,18.28
